ADDS METAR Data INFO
IDs: Format: Raw Decoded Include TAF

Data at: 2012 UTC 19 Oct 2017

KBJI 191953Z AUTO 21015KT 10SM CLR 21/02 A2983 RMK AO2 T02100023
KBJI 191933Z AUTO 20011G21KT 10SM CLR 20/02 A2984 RMK AO2 T02010022
KBJI 191913Z AUTO 21012G21KT 10SM CLR 21/02 A2985 RMK AO2 T02050019
KBJI 191853Z AUTO 22014G23KT 10SM CLR 21/02 A2985 RMK AO2 T02080019
KBJI 191833Z AUTO 22015G23KT 10SM CLR 21/02 A2986 RMK AO2 T02050018
KBJI 191758Z AUTO 19011G19KT 10SM CLR 19/01 A2987 RMK AO2 T01880011
KBJI 191733Z AUTO 18013G16KT 10SM CLR 18/01 A2989 RMK AO2 T01760006
KBJI 191713Z AUTO 17011KT 10SM CLR 17/00 A2990 RMK AO2 T01660001
KBJI 191654Z AUTO 17009G14KT 10SM CLR 16/00 A2991 RMK AO2 T01611002
KBJI 191633Z AUTO 17012G15KT 10SM CLR 15/M01 A2992 RMK AO2 T01531006
KBJI 191613Z AUTO 16008KT 10SM CLR 14/M01 A2993 RMK AO2 T01421007
KBJI 191554Z AUTO 15007KT 10SM CLR 13/M01 A2994 RMK AO2 T01341014
KBJI 191533Z AUTO 18005KT 10SM CLR 12/M01 A2994 RMK AO2 T01151013
KBJI 191513Z AUTO 19005KT 10SM CLR 10/M01 A2994 RMK AO2 T00991013
KBJI 191453Z AUTO 20006KT 10SM CLR 09/M01 A2995 RMK AO2 T00861014
KBJI 191433Z AUTO 19004KT 10SM CLR 07/M01 A2994 RMK AO2 T00731009
KBJI 191413Z AUTO 17004KT 10SM CLR 06/M01 A2994 RMK AO2 T00611013
KBJI 191353Z AUTO 00000KT 10SM CLR 04/M01 A2993 RMK AO2 T00401008
KBJI 191333Z AUTO 00000KT 10SM CLR 01/M03 A2993 RMK AO2 T00081035
KBJI 191314Z AUTO 00000KT 10SM CLR 01/M04 A2993 RMK AO2 T00071036
KBJI 191253Z AUTO 18003KT 10SM CLR 03/M04 A2993 RMK AO2 T00271038
KBJI 191233Z AUTO 20005KT 10SM CLR 00/M04 A2993 RMK AO2 T00041040
KBJI 191214Z AUTO 00000KT 10SM CLR 00/M05 A2993 RMK AO2 T00001047
KBJI 191153Z AUTO 00000KT 10SM CLR 01/M04 A2993 RMK AO2 T00071041 10068 20000
KBJI 191133Z AUTO 00000KT 10SM CLR 00/M05 A2993 RMK AO2 T00021050
KBJI 191114Z AUTO 00000KT 10SM CLR 00/M05 A2994 RMK AO2 T00031050
KBJI 191053Z AUTO 00000KT 10SM CLR 01/M04 A2993 RMK AO2 T00121042
KBJI 191033Z AUTO 00000KT 10SM CLR 02/M04 A2993 RMK AO2 T00161041
KBJI 191014Z AUTO 00000KT 10SM CLR 04/M05 A2994 RMK AO2 T00371046
KBJI 190953Z AUTO 24005KT 10SM CLR 05/M04 A2993 RMK AO2 T00461045
KBJI 190933Z AUTO 23006KT 10SM CLR 04/M04 A2993 RMK AO2 T00431044
KBJI 190914Z AUTO 23005KT 10SM CLR 05/M04 A2993 RMK AO2 T00461045
KBJI 190853Z AUTO 25006KT 10SM CLR 04/M05 A2992 RMK AO2 T00401048
KBJI 190833Z AUTO 26005KT 10SM CLR 04/M05 A2992 RMK AO2 T00361050
KBJI 190814Z AUTO 26006KT 10SM CLR 04/M05 A2992 RMK AO2 T00351050
KBJI 190753Z AUTO 24005KT 10SM CLR 06/M05 A2992 RMK AO2 T00551048
KBJI 190733Z AUTO 24007KT 10SM CLR 06/M05 A2992 RMK AO2 T00571050
KBJI 190713Z AUTO 24008KT 10SM CLR 06/M05 A2991 RMK AO2 T00631050
KBJI 190653Z AUTO 25008KT 10SM CLR 06/M05 A2990 RMK AO2 T00621051
KBJI 190633Z AUTO 25008KT 10SM CLR 06/M05 A2990 RMK AO2 T00641051
KBJI 190613Z AUTO 25008KT 10SM CLR 07/M05 A2990 RMK AO2 T00671053
KBJI 190553Z AUTO 26009KT 10SM CLR 07/M05 A2990 RMK AO2 T00671053 10110 20067 401580067
KBJI 190534Z AUTO 26011KT 10SM CLR 08/M05 A2989 RMK AO2 T00751055
KBJI 190513Z AUTO 26012KT 10SM CLR 08/M06 A2988 RMK AO2 T00791056
KBJI 190453Z AUTO 27012KT 10SM CLR 08/M06 A2988 RMK AO2 T00821059
KBJI 190434Z AUTO 26010G16KT 10SM CLR 08/M06 A2988 RMK AO2 T00821060
KBJI 190413Z AUTO 27011KT 10SM CLR 08/M07 A2988 RMK AO2 T00831066
KBJI 190354Z AUTO 26010KT 10SM CLR 08/M07 A2988 RMK AO2 T00821070
KBJI 190333Z AUTO 26011KT 10SM CLR 08/M07 A2987 RMK AO2 T00821073
KBJI 190313Z AUTO 26010KT 10SM CLR 08/M07 A2987 RMK AO2 T00831075
KBJI 190253Z AUTO 26012G18KT 10SM CLR 09/M08 A2987 RMK AO2 T00871079
KBJI 190233Z AUTO 26012G15KT 10SM CLR 09/M08 A2986 RMK AO2 T00881080
KBJI 190214Z AUTO 26011G18KT 10SM CLR 10/M08 A2986 RMK AO2 T00951085
KBJI 190153Z AUTO 26011G16KT 10SM CLR 09/M08 A2985 RMK AO2 T00901085
KBJI 190133Z AUTO 27010KT 10SM CLR 09/M09 A2986 RMK AO2 T00941092
KBJI 190114Z AUTO 26013G18KT 10SM CLR 10/M10 A2985 RMK AO2 T00991096
KBJI 190053Z AUTO 25016KT 10SM CLR 10/M10 A2984 RMK AO2 T01021099
KBJI 190033Z AUTO 26014KT 10SM CLR 10/M10 A2984 RMK AO2 T01001099
KBJI 190014Z AUTO 26013KT 10SM CLR 11/M10 A2984 RMK AO2 T01051102
KBJI 182353Z AUTO 27015G22KT 10SM CLR 11/M11 A2983 RMK AO2 T01121106 10158 20109
KBJI 182333Z AUTO 26014G18KT 10SM CLR 11/M09 A2982 RMK AO2 T01111095
KBJI 182314Z AUTO 27015G21KT 10SM CLR 12/M09 A2982 RMK AO2 T01181095
KBJI 182253Z AUTO 27019G25KT 10SM CLR 12/M10 A2981 RMK AO2 T01241098
KBJI 182234Z AUTO 26017G25KT 10SM CLR 12/M09 A2980 RMK AO2 T01231093
KBJI 182213Z AUTO 26014G25KT 10SM CLR 13/M09 A2980 RMK AO2 T01281088
KBJI 182153Z AUTO 26021G28KT 10SM CLR 13/M09 A2980 RMK AO2 T01341091
KBJI 182134Z AUTO 27022G27KT 10SM CLR 14/M09 A2979 RMK AO2 T01401090
KBJI 182113Z AUTO 28021G28KT 10SM CLR 15/M09 A2978 RMK AO2 T01451092
KBJI 182053Z AUTO 28026G31KT 10SM CLR 15/M09 A2978 RMK AO2 T01461092
KBJI 182034Z AUTO 27021G32KT 10SM CLR 15/M09 A2978 RMK AO2 T01481088
KBJI 182013Z AUTO 27023G31KT 10SM CLR 15/M09 A2977 RMK AO2 T01511091
KBJI 181953Z AUTO 27025G31KT 10SM CLR 15/M08 A2978 RMK AO2 T01491076
KBJI 181934Z AUTO 29023G29KT 10SM CLR 15/M08 A2977 RMK AO2 T01491078
KBJI 181913Z AUTO 26025G29KT 10SM CLR 15/M07 A2977 RMK AO2 T01481068
KBJI 181853Z AUTO 26025G35KT 10SM CLR 15/M07 A2977 RMK AO2 T01451066
KBJI 181834Z AUTO 28021G32KT 10SM CLR 15/M07 A2976 RMK AO2 T01461074
KBJI 181813Z AUTO 27026G30KT 10SM CLR 16/M06 A2976 RMK AO2 T01581062
KBJI 181753Z AUTO 28023G29KT 10SM CLR 15/M06 A2977 RMK AO2 T01531064 10156 20111
KBJI 181734Z AUTO 28022G29KT 10SM CLR 15/M07 A2977 RMK AO2 T01511069
KBJI 181713Z AUTO 27019G26KT 10SM CLR 14/M03 A2976 RMK AO2 T01421028
KBJI 181653Z AUTO 29026G32KT 10SM CLR 15/M05 A2976 RMK AO2 T01471049
KBJI 181634Z AUTO 28017G33KT 10SM CLR 15/00 A2975 RMK AO2 T01451004
KBJI 181613Z AUTO 28018G27KT 10SM CLR 15/02 A2974 RMK AO2 T01470015
KBJI 181553Z AUTO 28017G30KT 10SM CLR 15/01 A2972 RMK AO2 T01510012
KBJI 181534Z AUTO 27019G25KT 10SM CLR 15/02 A2971 RMK AO2 T01460020
KBJI 181513Z AUTO 27018G29KT 10SM CLR 15/02 A2970 RMK AO2 T01450019
KBJI 181453Z AUTO 27018G28KT 10SM CLR 15/02 A2968 RMK AO2 T01450024
KBJI 181434Z AUTO 26011G16KT 10SM CLR 15/03 A2967 RMK AO2 T01450031
KBJI 181413Z AUTO 25013KT 10SM CLR 14/03 A2966 RMK AO2 T01410033
KBJI 181354Z AUTO 24007KT 10SM CLR 13/04 A2966 RMK AO2 T01290037
KBJI 181333Z AUTO 24006KT 10SM CLR 12/04 A2966 RMK AO2 T01220038
KBJI 181313Z AUTO 22005KT 10SM CLR 12/04 A2964 RMK AO2 T01180040
KBJI 181254Z AUTO 23006KT 10SM CLR 12/04 A2963 RMK AO2 T01210039
KBJI 181233Z AUTO 24007KT 10SM CLR 12/04 A2963 RMK AO2 T01190040
KBJI 181213Z AUTO 23008KT 10SM CLR 12/04 A2964 RMK AO2 T01200040
KBJI 181154Z AUTO 24007G18KT 10SM CLR 12/04 A2963 RMK AO2 T01150038 10132 20113
KBJI 181133Z AUTO 19010KT 10SM CLR 12/04 A2960 RMK AO2 T01180035
KBJI 181113Z AUTO 20009KT 10SM CLR 12/04 A2960 RMK AO2 T01150035
KBJI 181054Z AUTO 20008G14KT 10SM CLR 12/04 A2961 RMK AO2 T01150035
KBJI 181033Z AUTO 19010KT 10SM CLR 12/04 A2961 RMK AO2 T01150035
KBJI 181013Z AUTO 19007KT 10SM CLR 12/04 A2963 RMK AO2 T01160035
KBJI 180954Z AUTO 19007KT 10SM CLR 11/04 A2963 RMK AO2 T01140035
KBJI 180933Z AUTO 19008KT 10SM CLR 12/04 A2964 RMK AO2 T01150035
KBJI 180913Z AUTO 19007KT 10SM CLR 12/04 A2965 RMK AO2 T01180035
KBJI 180853Z AUTO 18007KT 10SM CLR 12/04 A2966 RMK AO2 T01220036
KBJI 180833Z AUTO 19007KT 10SM CLR 12/04 A2967 RMK AO2 T01210037
KBJI 180814Z AUTO 21006KT 10SM CLR 13/04 A2968 RMK AO2 T01250038